This is the latest recevied weather packets stored in our database for station/object OE3MHU-12. If no packets are shown the sender has not sent any weather packets the latest 10 day(s).
| Time | Temp. | Humidity | Pressure | Rain* | Wind** | Luminosity | Snow |
|---|---|---|---|---|---|---|---|
| 1777348567 | 1.11° C | 80% | 1020.1 hPa | 0 mm | - | - | - |
| 1777346767 | 1.11° C | 79% | 1020.2 hPa | 0 mm | - | - | - |
| 1777344967 | 1.11° C | 78% | 1020.4 hPa | 0 mm | - | - | - |
| 1777343168 | 1.67° C | 78% | 1020.4 hPa | 0 mm | - | - | - |
| 1777341368 | 1.67° C | 77% | 1020.4 hPa | 0 mm | - | - | - |
| 1777339568 | 2.22° C | 77% | 1020.4 hPa | 0 mm | - | - | - |
| 1777337768 | 2.22° C | 77% | 1020.4 hPa | 0 mm | - | - | - |
| 1777335968 | 2.78° C | 75% | 1020.4 hPa | 0 mm | - | - | - |
| 1777312569 | 15° C | 46% | 1019.5 hPa | 0 mm | - | - | - |
| 1777310769 | 16.11° C | 41% | 1019.4 hPa | 0 mm | - | - | - |
| 1777303570 | 18.89° C | 35% | 1019.6 hPa | 0 mm | - | - | - |
| 1777301770 | 19.44° C | 35% | 1019.8 hPa | 0 mm | - | - | - |
| 1777299970 | 19.44° C | 34% | 1020.1 hPa | 0 mm | - | - | - |
| 1777298170 | 18.33° C | 31% | 1020.5 hPa | 0 mm | - | - | - |
| 1777296539 | 18.33° C | 34% | 1020.8 hPa | 0 mm | - | - | - |
| 1777296370 | 18.33° C | 34% | 1020.8 hPa | 0 mm | - | - | - |
| 1777294570 | 17.78° C | 37% | 1021.2 hPa | 0 mm | - | - | - |
| 1777292770 | 17.22° C | 36% | 1021.7 hPa | 0 mm | - | - | - |
| 1777289170 | 17.78° C | 38% | 1022.2 hPa | 0 mm | - | - | - |
| 1777285572 | 16.11° C | 39% | 1022.8 hPa | 0 mm | - | - | - |
| 1777283772 | 16.11° C | 39% | 1022.9 hPa | 0 mm | - | - | - |
| 1777281971 | 15.56° C | 40% | 1023.2 hPa | 0 mm | - | - | - |
| 1777280171 | 15° C | 46% | 1023.5 hPa | 0 mm | - | - | - |
| 1777278371 | 13.89° C | 48% | 1023.6 hPa | 0 mm | - | - | - |
| 1777276571 | 12.78° C | 52% | 1023.5 hPa | 0 mm | - | - | - |
* Rain latest hour (hover to see other rain measurements)
** Current wind speed in m/s (hover to see current wind gust speed)